createdAt,value
2019-02-15T00:02:21.566Z,99874.00
2019-02-15T00:07:27.652Z,99871.00
2019-02-15T00:12:34.235Z,99879.00
2019-02-15T00:17:42.397Z,99874.00
2019-02-15T00:22:49.029Z,99867.00
2019-02-15T00:27:55.990Z,99878.00
2019-02-15T00:33:02.859Z,99877.00
2019-02-15T00:38:21.958Z,99868.00
2019-02-15T00:43:27.955Z,99858.00
2019-02-15T00:48:33.959Z,99859.00
2019-02-15T00:59:11.786Z,99848.00
2019-02-15T01:04:26.282Z,99845.00
2019-02-15T01:09:34.808Z,99849.00
2019-02-15T01:14:41.654Z,99839.00
2019-02-15T01:19:48.508Z,99838.00
2019-02-15T01:24:55.485Z,99837.00
2019-02-15T01:35:52.051Z,99833.00
2019-02-15T01:41:00.248Z,99822.00
2019-02-15T01:46:27.137Z,99818.00
2019-02-15T01:51:34.126Z,99811.00
2019-02-15T01:56:41.100Z,99820.00
2019-02-15T02:01:48.129Z,99807.00
2019-02-15T02:06:55.018Z,99812.00
2019-02-15T02:12:01.924Z,99808.00
2019-02-15T02:17:09.856Z,99806.00
2019-02-15T02:22:16.735Z,99811.00
2019-02-15T02:27:42.023Z,99812.00
2019-02-15T02:32:48.925Z,99809.00
2019-02-15T02:37:55.906Z,99810.00
2019-02-15T02:43:03.035Z,99813.00
2019-02-15T02:48:10.066Z,99808.00
2019-02-15T02:53:28.988Z,99813.00
2019-02-15T02:58:35.629Z,99813.00
2019-02-15T03:03:42.107Z,99809.00
2019-02-15T03:08:49.305Z,99798.00
2019-02-15T03:13:55.817Z,99812.00
2019-02-15T03:19:02.352Z,99824.00
2019-02-15T03:24:09.117Z,99817.00
2019-02-15T03:29:16.348Z,99805.00
2019-02-15T03:34:23.250Z,99806.00
2019-02-15T03:39:45.935Z,99799.00
2019-02-15T03:45:12.051Z,99802.00
2019-02-15T03:50:19.049Z,99799.00
2019-02-15T03:55:25.094Z,99799.00
2019-02-15T04:00:31.069Z,99785.00
2019-02-15T04:05:37.614Z,99784.00
2019-02-15T04:10:44.997Z,99784.00
2019-02-15T04:15:52.618Z,99785.00
2019-02-15T04:21:20.444Z,99776.00
2019-02-15T04:26:26.499Z,99776.00
2019-02-15T04:31:32.544Z,99784.00
2019-02-15T04:36:39.311Z,99771.00
2019-02-15T04:41:46.303Z,99770.00
2019-02-15T04:46:53.419Z,99778.00
2019-02-15T04:52:00.378Z,99769.00
2019-02-15T04:57:07.374Z,99774.00
2019-02-15T05:02:14.252Z,99777.00
2019-02-15T05:07:21.267Z,99769.00
2019-02-15T05:12:27.345Z,99767.00
2019-02-15T05:17:33.474Z,99769.00
2019-02-15T05:22:40.409Z,99766.00
2019-02-15T05:27:47.311Z,99758.00
2019-02-15T05:32:54.387Z,99761.00
2019-02-15T05:38:13.212Z,99770.00
2019-02-15T05:43:20.246Z,99769.00
2019-02-15T05:48:26.278Z,99788.00
2019-02-15T05:53:32.346Z,99777.00
2019-02-15T05:58:39.196Z,99784.00
2019-02-15T06:03:46.393Z,99786.00
2019-02-15T06:08:53.476Z,99779.00
2019-02-15T06:14:00.387Z,99787.00
2019-02-15T06:19:08.638Z,99794.00
2019-02-15T06:24:15.569Z,99796.00
2019-02-15T06:29:22.492Z,99801.00
2019-02-15T06:34:52.950Z,99795.00
2019-02-15T06:40:00.024Z,99791.00
2019-02-15T06:45:08.168Z,99803.00
2019-02-15T06:50:15.416Z,99820.00
2019-02-15T06:55:22.481Z,99805.00
2019-02-15T07:05:57.042Z,99817.00
2019-02-15T07:11:03.937Z,99806.00
2019-02-15T07:16:10.853Z,99808.00
2019-02-15T07:21:17.846Z,99820.00
2019-02-15T07:26:43.976Z,99804.00
2019-02-15T07:31:50.853Z,99806.00
2019-02-15T07:36:58.063Z,99807.00
2019-02-15T07:42:06.011Z,99813.00
2019-02-15T07:47:31.316Z,99810.00
2019-02-15T07:52:38.234Z,99789.00
2019-02-15T07:57:45.222Z,99791.00
2019-02-15T08:02:52.354Z,99790.00
2019-02-15T08:07:59.296Z,99791.00
2019-02-15T08:13:06.396Z,99790.00
2019-02-15T08:18:13.324Z,99801.00
2019-02-15T08:23:20.915Z,99793.00
2019-02-15T08:28:26.925Z,99817.00
2019-02-15T08:33:34.288Z,99800.00
2019-02-15T08:38:41.418Z,99801.00
2019-02-15T08:43:48.431Z,99791.00
2019-02-15T08:48:56.974Z,99798.00
2019-02-15T08:54:05.278Z,99800.00
2019-02-15T08:59:12.494Z,99799.00
2019-02-15T09:04:19.647Z,99807.00
2019-02-15T09:09:25.703Z,99801.00
2019-02-15T09:14:32.164Z,99806.00
2019-02-15T09:19:38.657Z,99811.00
2019-02-15T09:24:45.335Z,99808.00
2019-02-15T09:29:52.193Z,99804.00
2019-02-15T09:34:58.765Z,99809.00
2019-02-15T09:40:07.067Z,99799.00
2019-02-15T09:45:16.600Z,99801.00
2019-02-15T09:50:24.548Z,99800.00
2019-02-15T09:55:31.451Z,99794.00
2019-02-15T10:00:38.365Z,99791.00
2019-02-15T10:05:45.765Z,99798.00
2019-02-15T10:10:52.430Z,99794.00
2019-02-15T10:16:00.590Z,99801.00
2019-02-15T10:21:07.398Z,99791.00
2019-02-15T10:26:14.646Z,99791.00
2019-02-15T10:31:21.494Z,99796.00
2019-02-15T10:36:27.509Z,99791.00
2019-02-15T10:41:35.285Z,99786.00
2019-02-15T10:46:42.065Z,99788.00
2019-02-15T10:51:49.802Z,99787.00
2019-02-15T10:56:56.524Z,99785.00
2019-02-15T11:02:03.991Z,99787.00
2019-02-15T11:07:10.684Z,99788.00
2019-02-15T11:12:17.454Z,99785.00
2019-02-15T11:17:24.046Z,99780.00
2019-02-15T11:22:31.699Z,99777.00
2019-02-15T11:27:38.599Z,99783.00
2019-02-15T11:32:45.598Z,99771.00
2019-02-15T11:37:52.163Z,99767.00
2019-02-15T11:42:59.201Z,99766.00
2019-02-15T11:48:06.424Z,99765.00
2019-02-15T11:53:13.520Z,99766.00
2019-02-15T11:58:20.952Z,99763.00
2019-02-15T12:03:27.159Z,99761.00
2019-02-15T12:08:34.029Z,99768.00
2019-02-15T12:13:41.025Z,99767.00
2019-02-15T12:18:49.544Z,99760.00
2019-02-15T12:23:56.793Z,99757.00
2019-02-15T12:29:04.557Z,99753.00
2019-02-15T12:34:11.304Z,99744.00
2019-02-15T12:39:18.301Z,99743.00
2019-02-15T12:44:24.424Z,99740.00
2019-02-15T12:49:30.660Z,99734.00
2019-02-15T12:54:37.656Z,99730.00
2019-02-15T12:59:45.460Z,99724.00
2019-02-15T13:04:52.337Z,99720.00
2019-02-15T13:09:59.367Z,99700.00
2019-02-15T13:15:08.599Z,99704.00
2019-02-15T13:20:15.232Z,99704.00
2019-02-15T13:25:22.092Z,99702.00
2019-02-15T13:30:28.136Z,99706.00
2019-02-15T13:35:35.445Z,99695.00
2019-02-15T13:40:42.271Z,99695.00
2019-02-15T13:45:49.227Z,99682.00
2019-02-15T13:50:56.147Z,99686.00
2019-02-15T13:56:03.479Z,99677.00
2019-02-15T14:01:10.595Z,99689.00
2019-02-15T14:06:17.548Z,99678.00
2019-02-15T14:11:24.600Z,99671.00
2019-02-15T14:16:31.366Z,99670.00
2019-02-15T14:21:44.340Z,99671.00
2019-02-15T14:26:46.544Z,99664.00
2019-02-15T14:31:53.752Z,99660.00
2019-02-15T14:37:01.444Z,99659.00
2019-02-15T14:42:09.702Z,99650.00
2019-02-15T14:47:16.643Z,99643.00
2019-02-15T14:52:24.649Z,99642.00
2019-02-15T14:57:31.725Z,99634.00
2019-02-15T15:02:38.757Z,99630.00
2019-02-15T15:07:45.985Z,99630.00
2019-02-15T15:12:53.198Z,99628.00
2019-02-15T15:18:10.676Z,99617.00
2019-02-15T15:23:08.041Z,99604.00
2019-02-15T15:28:14.808Z,99609.00
2019-02-15T15:33:21.653Z,99597.00
2019-02-15T15:38:27.568Z,99606.00
2019-02-15T15:43:34.743Z,99608.00
2019-02-15T15:48:41.488Z,99593.00
2019-02-15T15:53:48.455Z,99605.00
2019-02-15T15:58:55.190Z,99605.00
2019-02-15T16:04:02.070Z,99598.00
2019-02-15T16:09:09.184Z,99601.00
2019-02-15T16:14:17.213Z,99590.00
2019-02-15T16:19:23.500Z,99591.00
2019-02-15T16:24:29.467Z,99585.00
2019-02-15T16:29:36.244Z,99586.00
2019-02-15T16:34:42.949Z,99588.00
2019-02-15T16:39:49.414Z,99594.00
2019-02-15T16:44:56.226Z,99598.00
2019-02-15T16:50:03.372Z,99597.00
2019-02-15T16:55:13.287Z,99607.00
2019-02-15T17:00:19.987Z,99596.00
2019-02-15T17:05:27.722Z,99603.00
2019-02-15T17:10:33.664Z,99596.00
2019-02-15T17:15:40.522Z,99594.00
2019-02-15T17:20:47.554Z,99597.00
2019-02-15T17:25:54.382Z,99594.00
2019-02-15T17:31:01.416Z,99593.00
2019-02-15T17:36:08.536Z,99594.00
2019-02-15T17:41:15.379Z,99591.00
2019-02-15T17:46:22.192Z,99580.00
2019-02-15T17:51:28.205Z,99576.00
2019-02-15T17:56:34.762Z,99578.00
2019-02-15T18:01:41.828Z,99580.00
2019-02-15T18:06:48.851Z,99578.00
2019-02-15T18:11:55.822Z,99576.00
2019-02-15T18:17:02.813Z,99568.00
2019-02-15T18:22:21.355Z,99580.00
2019-02-15T18:27:27.435Z,99570.00
2019-02-15T18:32:34.305Z,99566.00
2019-02-15T18:37:41.168Z,99560.00
2019-02-15T18:42:48.337Z,99552.00
2019-02-15T18:47:55.370Z,99555.00
2019-02-15T18:53:02.303Z,99556.00
2019-02-15T18:58:10.418Z,99542.00
2019-02-15T19:03:18.308Z,99545.00
2019-02-15T19:08:25.718Z,99546.00
2019-02-15T19:13:32.931Z,99541.00
2019-02-15T19:18:40.544Z,99545.00
2019-02-15T19:23:48.678Z,99546.00
2019-02-15T19:28:56.285Z,99543.00
2019-02-15T19:34:02.836Z,99542.00
2019-02-15T19:39:09.565Z,99542.00
2019-02-15T19:44:16.616Z,99539.00
2019-02-15T19:49:23.455Z,99547.00
2019-02-15T19:54:29.361Z,99545.00
2019-02-15T19:59:35.861Z,99544.00
2019-02-15T20:04:42.449Z,99544.00
2019-02-15T20:09:49.529Z,99535.00
2019-02-15T20:14:58.768Z,99530.00
2019-02-15T20:20:08.444Z,99533.00
2019-02-15T20:25:15.418Z,99535.00
2019-02-15T20:30:24.356Z,99529.00
2019-02-15T20:35:32.815Z,99522.00
2019-02-15T20:40:39.629Z,99519.00
2019-02-15T20:45:46.492Z,99513.00
2019-02-15T20:50:54.911Z,99523.00
2019-02-15T20:56:01.486Z,99508.00
2019-02-15T21:01:08.004Z,99509.00
2019-02-15T21:06:14.811Z,99498.00
2019-02-15T21:11:22.427Z,99485.00
2019-02-15T21:16:48.174Z,99491.00
2019-02-15T21:21:54.746Z,99487.00
2019-02-15T21:27:01.636Z,99473.00
2019-02-15T21:32:08.733Z,99474.00
2019-02-15T21:37:15.668Z,99471.00
2019-02-15T21:42:22.324Z,99466.00
2019-02-15T21:47:28.312Z,99452.00
2019-02-15T21:52:43.560Z,99454.00
2019-02-15T21:57:43.805Z,99455.00
2019-02-15T22:02:51.193Z,99451.00
2019-02-15T22:07:58.132Z,99439.00
2019-02-15T22:13:05.115Z,99450.00
2019-02-15T22:18:11.590Z,99448.00
2019-02-15T22:23:18.253Z,99449.00
2019-02-15T22:28:24.287Z,99443.00
2019-02-15T22:33:32.243Z,99444.00
2019-02-15T22:38:39.061Z,99433.00
2019-02-15T22:43:57.971Z,99430.00
2019-02-15T22:49:04.800Z,99429.00
2019-02-15T22:54:11.332Z,99422.00
2019-02-15T22:59:18.737Z,99433.00
2019-02-15T23:04:24.682Z,99424.00
2019-02-15T23:09:31.648Z,99419.00
2019-02-15T23:14:38.619Z,99425.00
2019-02-15T23:19:45.616Z,99415.00
2019-02-15T23:25:13.807Z,99416.00
2019-02-15T23:30:20.755Z,99417.00
2019-02-15T23:35:26.743Z,99410.00
2019-02-15T23:40:32.660Z,99404.00
2019-02-15T23:45:39.616Z,99404.00
2019-02-15T23:50:54.370Z,99406.00
2019-02-15T23:55:55.021Z,99405.00
